sensor_id;sensor_type;location;lat;lon;timestamp;pressure;altitude;pressure_sealevel;temperature;humidity
69848;BME280;57143;55.940;37.496;2023-04-23T00:01:17;98663.22;;;8.62;100.00
69848;BME280;57143;55.940;37.496;2023-04-23T00:03:45;98684.47;;;8.70;100.00
69848;BME280;57143;55.940;37.496;2023-04-23T00:06:15;98690.25;;;8.73;100.00
69848;BME280;57143;55.940;37.496;2023-04-23T00:08:43;98690.47;;;8.72;100.00
69848;BME280;57143;55.940;37.496;2023-04-23T00:11:11;98701.06;;;8.73;100.00
69848;BME280;57143;55.940;37.496;2023-04-23T00:13:40;98699.88;;;8.69;100.00
69848;BME280;57143;55.940;37.496;2023-04-23T00:16:08;98703.56;;;8.75;100.00
69848;BME280;57143;55.940;37.496;2023-04-23T00:18:35;98687.78;;;8.72;100.00
69848;BME280;57143;55.940;37.496;2023-04-23T00:21:03;98693.41;;;8.70;100.00
69848;BME280;57143;55.940;37.496;2023-04-23T00:23:30;98647.56;;;8.52;100.00
69848;BME280;57143;55.940;37.496;2023-04-23T00:25:57;98664.72;;;8.58;100.00
69848;BME280;57143;55.940;37.496;2023-04-23T00:28:24;98664.22;;;8.49;100.00
69848;BME280;57143;55.940;37.496;2023-04-23T00:30:53;98675.03;;;8.49;100.00
69848;BME280;57143;55.940;37.496;2023-04-23T00:33:20;98672.56;;;8.48;100.00
69848;BME280;57143;55.940;37.496;2023-04-23T00:35:47;98666.41;;;8.41;100.00
69848;BME280;57143;55.940;37.496;2023-04-23T00:38:14;98673.97;;;8.50;100.00
69848;BME280;57143;55.940;37.496;2023-04-23T00:40:41;98666.47;;;8.52;100.00
69848;BME280;57143;55.940;37.496;2023-04-23T00:43:09;98659.38;;;8.40;100.00
69848;BME280;57143;55.940;37.496;2023-04-23T00:45:36;98669.75;;;8.54;100.00
69848;BME280;57143;55.940;37.496;2023-04-23T00:48:06;98666.47;;;8.52;100.00
69848;BME280;57143;55.940;37.496;2023-04-23T00:50:33;98689.09;;;8.69;100.00
69848;BME280;57143;55.940;37.496;2023-04-23T00:53:00;98701.28;;;8.72;100.00
69848;BME280;57143;55.940;37.496;2023-04-23T00:55:27;98674.63;;;8.64;100.00
69848;BME280;57143;55.940;37.496;2023-04-23T00:57:55;98691.69;;;8.76;100.00
69848;BME280;57143;55.940;37.496;2023-04-23T01:00:22;98697.22;;;8.81;100.00
69848;BME280;57143;55.940;37.496;2023-04-23T01:02:49;98694.50;;;8.81;100.00
69848;BME280;57143;55.940;37.496;2023-04-23T01:05:19;98695.94;;;8.83;100.00
69848;BME280;57143;55.940;37.496;2023-04-23T01:07:49;98695.72;;;8.85;100.00
69848;BME280;57143;55.940;37.496;2023-04-23T01:10:16;98686.63;;;8.79;100.00
69848;BME280;57143;55.940;37.496;2023-04-23T01:12:43;98700.19;;;8.91;100.00
69848;BME280;57143;55.940;37.496;2023-04-23T01:15:10;98702.66;;;8.92;100.00
69848;BME280;57143;55.940;37.496;2023-04-23T01:17:38;98692.66;;;8.81;100.00
69848;BME280;57143;55.940;37.496;2023-04-23T01:20:06;98681.00;;;8.81;100.00
69848;BME280;57143;55.940;37.496;2023-04-23T01:22:36;98688.19;;;8.87;100.00
69848;BME280;57143;55.940;37.496;2023-04-23T01:25:04;98689.00;;;8.87;100.00
69848;BME280;57143;55.940;37.496;2023-04-23T01:27:32;98685.56;;;8.80;100.00
69848;BME280;57143;55.940;37.496;2023-04-23T01:30:01;98703.25;;;8.94;100.00
69848;BME280;57143;55.940;37.496;2023-04-23T01:32:30;98704.31;;;8.93;100.00
69848;BME280;57143;55.940;37.496;2023-04-23T01:34:58;98706.78;;;8.95;100.00
69848;BME280;57143;55.940;37.496;2023-04-23T01:37:26;98704.44;;;8.98;100.00
69848;BME280;57143;55.940;37.496;2023-04-23T01:39:55;98698.19;;;8.98;100.00
69848;BME280;57143;55.940;37.496;2023-04-23T01:42:23;98696.94;;;9.00;100.00
69848;BME280;57143;55.940;37.496;2023-04-23T01:44:50;98725.72;;;9.06;100.00
69848;BME280;57143;55.940;37.496;2023-04-23T01:47:18;98737.00;;;9.15;100.00
69848;BME280;57143;55.940;37.496;2023-04-23T01:49:46;98733.03;;;9.17;100.00
69848;BME280;57143;55.940;37.496;2023-04-23T01:52:13;98755.16;;;9.26;100.00
69848;BME280;57143;55.940;37.496;2023-04-23T01:54:40;98767.97;;;9.30;100.00
69848;BME280;57143;55.940;37.496;2023-04-23T01:57:09;98762.91;;;9.34;100.00
69848;BME280;57143;55.940;37.496;2023-04-23T01:59:36;98778.00;;;9.42;100.00
69848;BME280;57143;55.940;37.496;2023-04-23T02:02:04;98792.25;;;9.49;100.00
69848;BME280;57143;55.940;37.496;2023-04-23T02:04:36;98802.34;;;9.53;100.00
69848;BME280;57143;55.940;37.496;2023-04-23T02:07:04;98790.69;;;9.53;100.00
69848;BME280;57143;55.940;37.496;2023-04-23T02:09:32;98799.28;;;9.61;100.00
69848;BME280;57143;55.940;37.496;2023-04-23T02:11:59;98810.47;;;9.65;100.00
69848;BME280;57143;55.940;37.496;2023-04-23T02:14:28;98817.91;;;9.69;100.00
69848;BME280;57143;55.940;37.496;2023-04-23T02:16:55;98817.66;;;9.71;100.00
69848;BME280;57143;55.940;37.496;2023-04-23T02:19:22;98815.09;;;9.76;100.00
69848;BME280;57143;55.940;37.496;2023-04-23T02:21:49;98812.75;;;9.79;100.00
69848;BME280;57143;55.940;37.496;2023-04-23T02:24:16;98825.22;;;9.92;100.00
69848;BME280;57143;55.940;37.496;2023-04-23T02:26:43;98851.25;;;10.39;100.00
69848;BME280;57143;55.940;37.496;2023-04-23T02:29:12;98864.72;;;10.97;100.00
69848;BME280;57143;55.940;37.496;2023-04-23T02:31:40;98906.50;;;11.52;100.00
69848;BME280;57143;55.940;37.496;2023-04-23T02:34:08;98929.22;;;11.62;100.00
69848;BME280;57143;55.940;37.496;2023-04-23T02:36:35;98915.50;;;11.41;100.00
69848;BME280;57143;55.940;37.496;2023-04-23T02:39:03;98908.50;;;11.17;100.00
69848;BME280;57143;55.940;37.496;2023-04-23T02:41:30;98906.31;;;11.02;100.00
69848;BME280;57143;55.940;37.496;2023-04-23T02:43:57;98893.50;;;10.86;100.00
69848;BME280;57143;55.940;37.496;2023-04-23T02:46:24;98875.84;;;10.72;100.00
69848;BME280;57143;55.940;37.496;2023-04-23T02:48:53;98870.56;;;10.66;100.00
69848;BME280;57143;55.940;37.496;2023-04-23T02:51:20;98856.78;;;10.56;100.00
69848;BME280;57143;55.940;37.496;2023-04-23T02:53:47;98857.13;;;10.47;100.00
69848;BME280;57143;55.940;37.496;2023-04-23T02:56:14;98810.19;;;10.19;100.00
69848;BME280;57143;55.940;37.496;2023-04-23T02:58:42;98822.56;;;10.26;100.00
69848;BME280;57143;55.940;37.496;2023-04-23T03:01:09;98829.59;;;10.27;100.00
69848;BME280;57143;55.940;37.496;2023-04-23T03:03:36;98829.59;;;10.27;100.00
69848;BME280;57143;55.940;37.496;2023-04-23T03:06:06;98797.00;;;10.11;100.00
69848;BME280;57143;55.940;37.496;2023-04-23T03:08:33;98821.63;;;10.21;100.00
69848;BME280;57143;55.940;37.496;2023-04-23T03:11:00;98835.84;;;10.28;100.00
69848;BME280;57143;55.940;37.496;2023-04-23T03:13:27;98836.09;;;10.26;100.00
69848;BME280;57143;55.940;37.496;2023-04-23T03:15:55;98834.78;;;10.29;100.00
69848;BME280;57143;55.940;37.496;2023-04-23T03:18:22;98834.78;;;10.29;100.00
69848;BME280;57143;55.940;37.496;2023-04-23T03:20:50;98835.72;;;10.34;100.00
69848;BME280;57143;55.940;37.496;2023-04-23T03:23:18;98852.91;;;10.40;100.00
69848;BME280;57143;55.940;37.496;2023-04-23T03:25:45;98853.03;;;10.45;100.00
69848;BME280;57143;55.940;37.496;2023-04-23T03:28:13;98857.38;;;10.46;100.00
69848;BME280;57143;55.940;37.496;2023-04-23T03:30:40;98849.25;;;10.46;100.00
69848;BME280;57143;55.940;37.496;2023-04-23T03:33:07;98840.06;;;10.47;100.00
69848;BME280;57143;55.940;37.496;2023-04-23T03:35:35;98834.75;;;10.52;100.00
69848;BME280;57143;55.940;37.496;2023-04-23T03:38:02;98836.88;;;10.50;100.00
69848;BME280;57143;55.940;37.496;2023-04-23T03:40:31;98841.22;;;10.51;100.00
69848;BME280;57143;55.940;37.496;2023-04-23T03:42:58;98837.59;;;10.57;100.00
69848;BME280;57143;55.940;37.496;2023-04-23T03:45:25;98846.75;;;10.68;100.00
69848;BME280;57143;55.940;37.496;2023-04-23T03:47:52;98867.38;;;10.80;100.00
69848;BME280;57143;55.940;37.496;2023-04-23T03:50:20;98865.56;;;10.86;100.00
69848;BME280;57143;55.940;37.496;2023-04-23T03:52:47;98888.66;;;10.88;100.00
69848;BME280;57143;55.940;37.496;2023-04-23T03:55:14;98902.09;;;10.95;100.00
69848;BME280;57143;55.940;37.496;2023-04-23T03:57:43;98912.69;;;10.96;100.00
69848;BME280;57143;55.940;37.496;2023-04-23T04:00:11;98924.94;;;10.99;100.00
69848;BME280;57143;55.940;37.496;2023-04-23T04:02:39;98913.28;;;10.98;100.00
69848;BME280;57143;55.940;37.496;2023-04-23T04:05:07;98952.38;;;11.14;100.00
69848;BME280;57143;55.940;37.496;2023-04-23T04:07:35;98935.47;;;11.23;100.00
69848;BME280;57143;55.940;37.496;2023-04-23T04:10:03;98942.91;;;11.28;100.00
69848;BME280;57143;55.940;37.496;2023-04-23T04:12:31;98936.06;;;11.25;100.00
69848;BME280;57143;55.940;37.496;2023-04-23T04:14:59;98943.84;;;11.33;100.00
69848;BME280;57143;55.940;37.496;2023-04-23T04:17:32;98935.38;;;11.30;100.00
69848;BME280;57143;55.940;37.496;2023-04-23T04:19:59;98946.84;;;11.48;100.00
69848;BME280;57143;55.940;37.496;2023-04-23T04:22:26;98935.50;;;11.51;100.00
69848;BME280;57143;55.940;37.496;2023-04-23T04:24:53;98934.56;;;11.57;100.00
69848;BME280;57143;55.940;37.496;2023-04-23T04:27:22;98928.88;;;11.59;100.00
69848;BME280;57143;55.940;37.496;2023-04-23T04:29:49;98943.25;;;11.71;100.00
69848;BME280;57143;55.940;37.496;2023-04-23T04:32:18;98935.06;;;11.83;100.00
69848;BME280;57143;55.940;37.496;2023-04-23T04:34:48;98956.69;;;11.94;100.00
69848;BME280;57143;55.940;37.496;2023-04-23T04:37:15;98955.06;;;11.93;100.00
69848;BME280;57143;55.940;37.496;2023-04-23T04:39:42;98956.69;;;11.94;100.00
69848;BME280;57143;55.940;37.496;2023-04-23T04:42:10;98940.78;;;12.14;100.00
69848;BME280;57143;55.940;37.496;2023-04-23T04:44:38;98959.28;;;12.34;100.00
69848;BME280;57143;55.940;37.496;2023-04-23T04:47:05;98981.63;;;12.52;100.00
69848;BME280;57143;55.940;37.496;2023-04-23T04:49:34;98997.94;;;12.69;100.00
69848;BME280;57143;55.940;37.496;2023-04-23T04:52:01;99004.03;;;12.76;100.00
69848;BME280;57143;55.940;37.496;2023-04-23T04:54:29;99016.00;;;12.75;100.00
69848;BME280;57143;55.940;37.496;2023-04-23T04:56:56;99032.69;;;13.00;100.00
69848;BME280;57143;55.940;37.496;2023-04-23T04:59:23;99024.78;;;12.99;100.00
69848;BME280;57143;55.940;37.496;2023-04-23T05:01:51;99028.50;;;13.09;100.00
69848;BME280;57143;55.940;37.496;2023-04-23T05:04:18;99031.63;;;13.18;100.00
69848;BME280;57143;55.940;37.496;2023-04-23T05:06:47;99033.25;;;13.19;100.00
69848;BME280;57143;55.940;37.496;2023-04-23T05:09:14;99027.16;;;13.28;100.00
69848;BME280;57143;55.940;37.496;2023-04-23T05:11:41;99035.78;;;13.42;100.00
69848;BME280;57143;55.940;37.496;2023-04-23T05:14:09;99026.09;;;13.51;100.00
69848;BME280;57143;55.940;37.496;2023-04-23T05:16:37;99039.66;;;13.46;100.00
69848;BME280;57143;55.940;37.496;2023-04-23T05:19:04;99048.75;;;13.56;100.00
69848;BME280;57143;55.940;37.496;2023-04-23T05:21:33;99068.66;;;13.78;100.00
69848;BME280;57143;55.940;37.496;2023-04-23T05:24:01;99075.81;;;13.84;100.00
69848;BME280;57143;55.940;37.496;2023-04-23T05:26:28;99060.66;;;13.93;100.00
69848;BME280;57143;55.940;37.496;2023-04-23T05:28:56;99056.75;;;13.84;100.00
69848;BME280;57143;55.940;37.496;2023-04-23T05:31:23;99079.97;;;14.14;100.00
69848;BME280;57143;55.940;37.496;2023-04-23T05:33:51;99090.75;;;14.25;100.00
69848;BME280;57143;55.940;37.496;2023-04-23T05:36:19;99095.50;;;14.35;100.00
69848;BME280;57143;55.940;37.496;2023-04-23T05:38:46;99104.97;;;14.54;100.00
69848;BME280;57143;55.940;37.496;2023-04-23T05:41:15;99109.16;;;14.61;100.00
69848;BME280;57143;55.940;37.496;2023-04-23T05:43:42;99125.13;;;15.06;100.00
69848;BME280;57143;55.940;37.496;2023-04-23T05:46:10;99133.03;;;15.39;100.00
69848;BME280;57143;55.940;37.496;2023-04-23T05:48:37;99153.34;;;15.53;100.00
69848;BME280;57143;55.940;37.496;2023-04-23T05:51:04;99146.13;;;15.37;100.00
69848;BME280;57143;55.940;37.496;2023-04-23T05:53:31;99145.56;;;15.35;100.00
69848;BME280;57143;55.940;37.496;2023-04-23T05:55:58;99153.00;;;15.81;100.00
69848;BME280;57143;55.940;37.496;2023-04-23T05:58:27;99164.06;;;16.06;100.00
69848;BME280;57143;55.940;37.496;2023-04-23T06:00:54;99175.31;;;16.15;100.00
69848;BME280;57143;55.940;37.496;2023-04-23T06:03:22;99186.25;;;16.15;100.00
69848;BME280;57143;55.940;37.496;2023-04-23T06:05:49;99191.22;;;16.28;100.00
69848;BME280;57143;55.940;37.496;2023-04-23T06:08:17;99190.84;;;16.56;100.00
69848;BME280;57143;55.940;37.496;2023-04-23T06:10:45;99194.16;;;16.63;100.00
69848;BME280;57143;55.940;37.496;2023-04-23T06:13:12;99204.00;;;16.64;100.00
69848;BME280;57143;55.940;37.496;2023-04-23T06:15:41;99205.41;;;16.72;100.00
69848;BME280;57143;55.940;37.496;2023-04-23T06:18:08;99208.72;;;16.89;100.00
69848;BME280;57143;55.940;37.496;2023-04-23T06:20:36;99218.88;;;17.08;100.00
69848;BME280;57143;55.940;37.496;2023-04-23T06:23:03;99230.16;;;17.32;100.00
69848;BME280;57143;55.940;37.496;2023-04-23T06:25:31;99233.69;;;17.22;100.00
69848;BME280;57143;55.940;37.496;2023-04-23T06:27:58;99222.72;;;17.12;100.00
69848;BME280;57143;55.940;37.496;2023-04-23T06:30:25;99232.59;;;17.13;100.00
69848;BME280;57143;55.940;37.496;2023-04-23T06:32:54;99240.56;;;17.40;100.00
69848;BME280;57143;55.940;37.496;2023-04-23T06:35:21;99213.72;;;17.27;100.00
69848;BME280;57143;55.940;37.496;2023-04-23T06:37:48;99245.28;;;17.60;100.00
69848;BME280;57143;55.940;37.496;2023-04-23T06:40:16;99243.31;;;18.00;100.00
69848;BME280;57143;55.940;37.496;2023-04-23T06:42:43;99247.09;;;18.39;100.00
69848;BME280;57143;55.940;37.496;2023-04-23T06:45:10;99241.50;;;18.70;100.00
69848;BME280;57143;55.940;37.496;2023-04-23T06:47:39;99228.28;;;18.77;100.00
69848;BME280;57143;55.940;37.496;2023-04-23T06:50:08;99252.28;;;19.10;99.78
69848;BME280;57143;55.940;37.496;2023-04-23T06:52:35;99259.72;;;19.09;98.88
69848;BME280;57143;55.940;37.496;2023-04-23T06:55:03;99259.16;;;19.07;98.38
69848;BME280;57143;55.940;37.496;2023-04-23T06:57:31;99262.19;;;19.06;97.20
69848;BME280;57143;55.940;37.496;2023-04-23T06:59:58;99268.22;;;19.13;95.28
69848;BME280;57143;55.940;37.496;2023-04-23T07:02:25;99262.22;;;19.01;94.37
69848;BME280;57143;55.940;37.496;2023-04-23T07:04:52;99262.91;;;19.31;91.39
69848;BME280;57143;55.940;37.496;2023-04-23T07:07:21;99266.53;;;19.61;91.02
69848;BME280;57143;55.940;37.496;2023-04-23T07:09:48;99262.56;;;20.05;90.71
69848;BME280;57143;55.940;37.496;2023-04-23T07:12:15;99272.06;;;20.51;88.52
69848;BME280;57143;55.940;37.496;2023-04-23T07:14:42;99275.16;;;20.68;84.64
69848;BME280;57143;55.940;37.496;2023-04-23T07:17:10;99274.91;;;20.89;84.01
69848;BME280;57143;55.940;37.496;2023-04-23T07:19:37;99283.59;;;21.01;83.21
69848;BME280;57143;55.940;37.496;2023-04-23T07:22:04;99275.19;;;20.87;82.80
69848;BME280;57143;55.940;37.496;2023-04-23T07:24:33;99276.59;;;20.85;80.83
69848;BME280;57143;55.940;37.496;2023-04-23T07:27:00;99283.88;;;20.76;81.14
69848;BME280;57143;55.940;37.496;2023-04-23T07:29:28;99285.41;;;21.10;81.19
69848;BME280;57143;55.940;37.496;2023-04-23T07:31:55;99282.50;;;21.20;78.63
69848;BME280;57143;55.940;37.496;2023-04-23T07:34:22;99269.91;;;20.91;72.78
69848;BME280;57143;55.940;37.496;2023-04-23T07:36:49;99291.03;;;21.00;65.67
69848;BME280;57143;55.940;37.496;2023-04-23T07:39:17;99287.72;;;21.22;63.39
69848;BME280;57143;55.940;37.496;2023-04-23T07:41:46;99286.16;;;21.53;61.73
69848;BME280;57143;55.940;37.496;2023-04-23T07:44:13;99283.91;;;21.73;58.38
69848;BME280;57143;55.940;37.496;2023-04-23T07:46:40;99271.25;;;21.54;59.19
69848;BME280;57143;55.940;37.496;2023-04-23T07:49:07;99284.38;;;21.25;59.87
69848;BME280;57143;55.940;37.496;2023-04-23T07:51:35;99293.00;;;21.55;54.72
69848;BME280;57143;55.940;37.496;2023-04-23T07:54:02;99283.84;;;21.78;53.89
69848;BME280;57143;55.940;37.496;2023-04-23T07:56:29;99271.41;;;21.81;54.57
69848;BME280;57143;55.940;37.496;2023-04-23T07:58:58;99283.50;;;21.29;54.06
69848;BME280;57143;55.940;37.496;2023-04-23T08:01:26;99275.72;;;21.68;56.44
69848;BME280;57143;55.940;37.496;2023-04-23T08:03:53;99269.34;;;22.05;57.59
69848;BME280;57143;55.940;37.496;2023-04-23T08:06:21;99276.78;;;22.05;56.58
69848;BME280;57143;55.940;37.496;2023-04-23T08:08:51;99271.78;;;21.56;56.29
69848;BME280;57143;55.940;37.496;2023-04-23T08:11:20;99283.44;;;22.04;54.61
69848;BME280;57143;55.940;37.496;2023-04-23T08:13:48;99282.94;;;22.02;52.57
69848;BME280;57143;55.940;37.496;2023-04-23T08:16:17;99281.09;;;20.52;54.67
69848;BME280;57143;55.940;37.496;2023-04-23T08:18:44;99280.16;;;19.81;58.48
69848;BME280;57143;55.940;37.496;2023-04-23T08:21:11;99278.28;;;20.05;58.38
69848;BME280;57143;55.940;37.496;2023-04-23T08:23:38;99269.69;;;19.83;61.71
69848;BME280;57143;55.940;37.496;2023-04-23T08:26:05;99280.84;;;19.58;63.71
69848;BME280;57143;55.940;37.496;2023-04-23T08:28:33;99278.28;;;19.32;65.92
69848;BME280;57143;55.940;37.496;2023-04-23T08:31:00;99279.44;;;19.16;67.15
69848;BME280;57143;55.940;37.496;2023-04-23T08:33:29;99280.75;;;19.29;67.68
69848;BME280;57143;55.940;37.496;2023-04-23T08:35:56;99269.72;;;19.39;68.12
69848;BME280;57143;55.940;37.496;2023-04-23T08:38:23;99272.03;;;19.17;68.16
69848;BME280;57143;55.940;37.496;2023-04-23T08:40:54;99279.03;;;19.48;67.01
69848;BME280;57143;55.940;37.496;2023-04-23T08:43:27;99277.34;;;19.47;66.60
69848;BME280;57143;55.940;37.496;2023-04-23T08:45:57;99233.25;;;19.23;66.19
69848;BME280;57143;55.940;37.496;2023-04-23T08:48:29;99277.31;;;19.08;67.19
69848;BME280;57143;55.940;37.496;2023-04-23T08:50:58;99274.41;;;19.38;66.25
69848;BME280;57143;55.940;37.496;2023-04-23T08:53:26;99281.69;;;19.09;67.10
69848;BME280;57143;55.940;37.496;2023-04-23T08:55:54;99266.34;;;19.03;66.24
69848;BME280;57143;55.940;37.496;2023-04-23T08:58:22;99264.91;;;19.11;65.63
69848;BME280;57143;55.940;37.496;2023-04-23T09:00:52;99269.09;;;18.98;66.51
69848;BME280;57143;55.940;37.496;2023-04-23T09:03:20;99261.44;;;18.95;67.05
69848;BME280;57143;55.940;37.496;2023-04-23T09:05:50;99262.03;;;18.87;66.85
69848;BME280;57143;55.940;37.496;2023-04-23T09:08:18;99255.88;;;19.54;65.38
69848;BME280;57143;55.940;37.496;2023-04-23T09:10:46;99254.81;;;19.84;64.38
69848;BME280;57143;55.940;37.496;2023-04-23T09:13:15;99256.38;;;19.61;64.84
69848;BME280;57143;55.940;37.496;2023-04-23T09:15:42;99264.88;;;19.16;67.06
69848;BME280;57143;55.940;37.496;2023-04-23T09:18:09;99258.22;;;19.32;66.06
69848;BME280;57143;55.940;37.496;2023-04-23T09:20:36;99263.41;;;18.85;66.41
69848;BME280;57143;55.940;37.496;2023-04-23T09:23:07;99256.97;;;18.46;70.76
69848;BME280;57143;55.940;37.496;2023-04-23T09:25:34;99260.25;;;18.48;70.05
69848;BME280;57143;55.940;37.496;2023-04-23T09:28:06;99267.34;;;18.64;70.45
69848;BME280;57143;55.940;37.496;2023-04-23T09:30:38;99258.03;;;18.60;69.38
69848;BME280;57143;55.940;37.496;2023-04-23T09:33:07;99252.69;;;18.83;69.51
69848;BME280;57143;55.940;37.496;2023-04-23T09:35:36;99244.47;;;18.83;69.92
69848;BME280;57143;55.940;37.496;2023-04-23T09:38:07;99242.38;;;19.09;68.84
69848;BME280;57143;55.940;37.496;2023-04-23T09:40:35;99240.16;;;19.60;66.69
69848;BME280;57143;55.940;37.496;2023-04-23T09:43:04;99239.13;;;19.50;66.58
69848;BME280;57143;55.940;37.496;2023-04-23T09:45:32;99248.06;;;19.22;67.83
69848;BME280;57143;55.940;37.496;2023-04-23T09:48:00;99251.19;;;19.11;70.00
69848;BME280;57143;55.940;37.496;2023-04-23T09:50:32;99254.75;;;19.11;70.40
69848;BME280;57143;55.940;37.496;2023-04-23T09:52:59;99240.50;;;19.04;71.12
69848;BME280;57143;55.940;37.496;2023-04-23T09:55:30;99237.13;;;18.69;72.12
69848;BME280;57143;55.940;37.496;2023-04-23T09:58:00;99236.13;;;18.98;71.35
69848;BME280;57143;55.940;37.496;2023-04-23T10:00:32;99232.59;;;19.41;69.29
69848;BME280;57143;55.940;37.496;2023-04-23T10:02:59;99221.84;;;19.79;68.15
69848;BME280;57143;55.940;37.496;2023-04-23T10:05:27;99231.50;;;20.05;67.37
69848;BME280;57143;55.940;37.496;2023-04-23T10:07:55;99234.34;;;19.95;65.57
69848;BME280;57143;55.940;37.496;2023-04-23T10:10:24;99229.94;;;19.94;63.51
69848;BME280;57143;55.940;37.496;2023-04-23T10:12:52;99232.16;;;19.92;63.16
69848;BME280;57143;55.940;37.496;2023-04-23T10:15:22;99232.81;;;19.84;64.22
69848;BME280;57143;55.940;37.496;2023-04-23T10:17:51;99230.53;;;19.62;65.49
69848;BME280;57143;55.940;37.496;2023-04-23T10:20:20;99226.16;;;19.12;66.28
69848;BME280;57143;55.940;37.496;2023-04-23T10:22:48;99232.97;;;19.25;67.00
69848;BME280;57143;55.940;37.496;2023-04-23T10:25:17;99229.84;;;19.41;66.67
69848;BME280;57143;55.940;37.496;2023-04-23T10:27:48;99203.94;;;19.09;68.69
69848;BME280;57143;55.940;37.496;2023-04-23T10:30:16;99214.88;;;19.19;68.79
69848;BME280;57143;55.940;37.496;2023-04-23T10:32:45;99229.13;;;19.21;68.76
69848;BME280;57143;55.940;37.496;2023-04-23T10:35:14;99227.72;;;19.28;69.06
69848;BME280;57143;55.940;37.496;2023-04-23T10:37:42;99217.84;;;19.22;68.53
69848;BME280;57143;55.940;37.496;2023-04-23T10:40:12;99213.16;;;19.28;68.59
69848;BME280;57143;55.940;37.496;2023-04-23T10:42:42;99222.66;;;19.45;68.08
69848;BME280;57143;55.940;37.496;2023-04-23T10:45:13;99220.41;;;19.09;69.54
69848;BME280;57143;55.940;37.496;2023-04-23T10:47:43;99224.34;;;18.98;69.42
69848;BME280;57143;55.940;37.496;2023-04-23T10:50:18;99240.72;;;19.13;70.18
69848;BME280;57143;55.940;37.496;2023-04-23T10:52:46;99218.44;;;19.19;70.72
69848;BME280;57143;55.940;37.496;2023-04-23T10:55:22;99226.63;;;19.24;69.50
69848;BME280;57143;55.940;37.496;2023-04-23T10:58:00;99195.44;;;18.62;70.40
69848;BME280;57143;55.940;37.496;2023-04-23T11:00:29;99218.22;;;19.11;70.85
69848;BME280;57143;55.940;37.496;2023-04-23T11:03:27;99213.41;;;18.93;70.49
69848;BME280;57143;55.940;37.496;2023-04-23T11:05:54;99199.59;;;19.03;69.59
69848;BME280;57143;55.940;37.496;2023-04-23T11:08:22;99208.53;;;18.75;69.01
69848;BME280;57143;55.940;37.496;2023-04-23T11:10:53;99196.50;;;18.66;70.23
69848;BME280;57143;55.940;37.496;2023-04-23T11:13:22;99210.91;;;18.96;69.33
69848;BME280;57143;55.940;37.496;2023-04-23T11:16:13;99206.38;;;19.15;69.01
69848;BME280;57143;55.940;37.496;2023-04-23T11:19:01;99202.56;;;19.11;68.29
69848;BME280;57143;55.940;37.496;2023-04-23T11:21:59;99201.41;;;19.17;67.49
69848;BME280;57143;55.940;37.496;2023-04-23T11:24:29;99199.53;;;19.13;68.42
69848;BME280;57143;55.940;37.496;2023-04-23T11:26:57;99198.34;;;19.24;67.88
69848;BME280;57143;55.940;37.496;2023-04-23T11:29:25;99194.81;;;19.18;67.28
69848;BME280;57143;55.940;37.496;2023-04-23T11:31:54;99184.66;;;19.14;68.32
69848;BME280;57143;55.940;37.496;2023-04-23T11:34:23;99181.19;;;19.03;67.29
69848;BME280;57143;55.940;37.496;2023-04-23T11:36:52;99197.78;;;18.83;65.36
69848;BME280;57143;55.940;37.496;2023-04-23T11:39:20;99195.03;;;18.83;65.55
69848;BME280;57143;55.940;37.496;2023-04-23T11:41:48;99197.31;;;18.66;67.74
69848;BME280;57143;55.940;37.496;2023-04-23T11:44:17;99202.88;;;18.56;68.35
69848;BME280;57143;55.940;37.496;2023-04-23T11:46:45;99204.91;;;18.89;68.94
69848;BME280;57143;55.940;37.496;2023-04-23T11:49:13;99195.72;;;19.04;67.66
69848;BME280;57143;55.940;37.496;2023-04-23T11:51:44;99189.69;;;19.02;67.32
69848;BME280;57143;55.940;37.496;2023-04-23T11:54:12;99187.16;;;19.10;67.50
69848;BME280;57143;55.940;37.496;2023-04-23T11:56:40;99204.75;;;19.09;67.18
69848;BME280;57143;55.940;37.496;2023-04-23T11:59:08;99201.44;;;19.12;67.38
69848;BME280;57143;55.940;37.496;2023-04-23T12:01:43;99198.88;;;19.26;67.51
69848;BME280;57143;55.940;37.496;2023-04-23T12:04:12;99189.25;;;19.28;65.07
69848;BME280;57143;55.940;37.496;2023-04-23T12:06:40;99187.84;;;19.36;65.36
69848;BME280;57143;55.940;37.496;2023-04-23T12:09:09;99181.66;;;19.15;65.42
69848;BME280;57143;55.940;37.496;2023-04-23T12:11:38;99171.25;;;19.07;66.26
69848;BME280;57143;55.940;37.496;2023-04-23T12:14:06;99176.88;;;18.87;68.33
69848;BME280;57143;55.940;37.496;2023-04-23T12:16:36;99177.94;;;18.96;69.94
69848;BME280;57143;55.940;37.496;2023-04-23T12:19:06;99180.13;;;18.99;70.20
69848;BME280;57143;55.940;37.496;2023-04-23T12:21:34;99178.09;;;19.15;68.76
69848;BME280;57143;55.940;37.496;2023-04-23T12:24:03;99173.63;;;19.24;69.74
69848;BME280;57143;55.940;37.496;2023-04-23T12:26:32;99160.38;;;19.36;69.22
69848;BME280;57143;55.940;37.496;2023-04-23T12:29:02;99170.25;;;19.37;67.98
69848;BME280;57143;55.940;37.496;2023-04-23T12:31:30;99174.66;;;19.33;67.93
69848;BME280;57143;55.940;37.496;2023-04-23T12:33:57;99168.44;;;19.17;68.87
69848;BME280;57143;55.940;37.496;2023-04-23T12:36:26;99163.72;;;19.23;69.02
69848;BME280;57143;55.940;37.496;2023-04-23T12:42:03;99161.56;;;19.20;69.83
69848;BME280;57143;55.940;37.496;2023-04-23T12:44:32;99161.91;;;19.47;68.10
69848;BME280;57143;55.940;37.496;2023-04-23T12:47:01;99119.38;;;19.01;67.72
69848;BME280;57143;55.940;37.496;2023-04-23T12:49:31;99161.88;;;19.13;67.94
69848;BME280;57143;55.940;37.496;2023-04-23T12:51:59;99156.09;;;19.15;68.33
69848;BME280;57143;55.940;37.496;2023-04-23T12:54:28;99155.03;;;19.11;68.93